createdAt,value
2022-10-20T00:00:00.261Z,10.6
2022-10-20T00:10:00.276Z,10.6
2022-10-20T00:20:00.290Z,10.6
2022-10-20T00:30:00.290Z,10.5
2022-10-20T00:40:00.335Z,10.4
2022-10-20T00:50:00.330Z,10.4
2022-10-20T01:00:00.318Z,10.3
2022-10-20T01:10:00.244Z,10.2
2022-10-20T01:20:00.275Z,10.2
2022-10-20T01:30:00.286Z,10.1
2022-10-20T01:40:00.247Z,10.1
2022-10-20T01:50:00.286Z,10.0
2022-10-20T02:00:00.349Z,9.9
2022-10-20T02:10:00.296Z,9.9
2022-10-20T02:20:00.312Z,9.9
2022-10-20T02:30:00.260Z,9.9
2022-10-20T02:40:00.277Z,10.0
2022-10-20T02:50:00.270Z,10.0
2022-10-20T03:00:00.264Z,9.9
2022-10-20T03:10:00.358Z,9.9
2022-10-20T03:20:00.300Z,9.8
2022-10-20T03:30:00.287Z,9.8
2022-10-20T03:40:00.280Z,9.9
2022-10-20T03:50:00.349Z,9.9
2022-10-20T04:00:00.319Z,10.0
2022-10-20T04:10:00.274Z,10.0
2022-10-20T04:20:00.339Z,10.1
2022-10-20T04:30:00.325Z,10.1
2022-10-20T04:40:00.255Z,10.1
2022-10-20T04:50:00.299Z,10.1
2022-10-20T05:00:00.287Z,10.1
2022-10-20T05:10:00.293Z,10.1
2022-10-20T05:20:00.273Z,10.1
2022-10-20T05:30:00.338Z,10.1
2022-10-20T05:40:00.287Z,10.0
2022-10-20T05:50:00.272Z,10.0
2022-10-20T06:00:00.271Z,10.0
2022-10-20T06:10:00.302Z,10.1
2022-10-20T06:20:00.592Z,10.1
2022-10-20T06:30:00.274Z,10.2
2022-10-20T06:40:00.313Z,10.2
2022-10-20T06:50:00.246Z,10.2
2022-10-20T07:00:00.260Z,10.2
2022-10-20T07:10:00.264Z,10.3
2022-10-20T07:20:00.367Z,10.4
2022-10-20T07:30:00.453Z,10.4
2022-10-20T07:40:00.230Z,10.5
2022-10-20T07:50:00.284Z,10.6
2022-10-20T08:00:00.256Z,10.7
2022-10-20T08:10:00.251Z,10.8
2022-10-20T08:20:01.215Z,11.0
2022-10-20T08:30:19.063Z,11.1
2022-10-20T08:40:00.259Z,11.2
2022-10-20T08:50:00.250Z,11.4
2022-10-20T09:00:00.280Z,11.5
2022-10-20T09:10:00.290Z,11.8
2022-10-20T09:20:00.250Z,11.9
2022-10-20T09:30:00.267Z,12.0
2022-10-20T09:40:00.258Z,12.1
2022-10-20T09:50:01.233Z,12.3
2022-10-20T10:00:04.587Z,12.4
2022-10-20T10:10:01.314Z,12.6
2022-10-20T10:20:00.259Z,12.6
2022-10-20T10:30:00.299Z,12.8
2022-10-20T10:40:00.251Z,12.8
2022-10-20T10:50:00.259Z,12.9
2022-10-20T11:00:00.263Z,12.9
2022-10-20T11:10:00.341Z,12.8
2022-10-20T11:20:00.272Z,12.8
2022-10-20T11:30:00.276Z,12.9
2022-10-20T11:40:03.152Z,12.9
2022-10-20T11:50:00.293Z,12.9
2022-10-20T12:00:00.283Z,12.8
2022-10-20T12:10:00.255Z,12.9
2022-10-20T12:20:00.323Z,12.9
2022-10-20T12:30:00.270Z,13.0
2022-10-20T12:40:01.316Z,13.0
2022-10-20T12:50:00.248Z,13.1
2022-10-20T13:00:00.280Z,13.1
2022-10-20T13:10:01.756Z,13.1
2022-10-20T13:20:01.545Z,13.1
2022-10-20T13:30:00.368Z,13.0
2022-10-20T13:40:00.258Z,13.1
2022-10-20T13:50:00.282Z,13.2
2022-10-20T14:00:00.290Z,13.2
2022-10-20T14:10:00.280Z,13.3
2022-10-20T14:20:00.271Z,13.2
2022-10-20T14:30:00.291Z,13.2
2022-10-20T14:40:00.455Z,13.3
2022-10-20T14:50:00.252Z,13.2
2022-10-20T15:00:00.296Z,13.2
2022-10-20T15:10:04.254Z,13.2
2022-10-20T15:20:00.265Z,13.1
2022-10-20T15:30:00.293Z,13.0
2022-10-20T15:40:00.270Z,12.9
2022-10-20T16:00:00.337Z,12.7
2022-10-20T16:10:00.295Z,12.6
2022-10-20T16:20:00.256Z,12.3
2022-10-20T16:30:00.286Z,12.2
2022-10-20T16:40:00.293Z,12.2
2022-10-20T16:50:00.274Z,12.1
2022-10-20T17:00:00.341Z,12.0
2022-10-20T17:10:00.269Z,11.9
2022-10-20T17:20:00.259Z,11.8
2022-10-20T17:30:00.281Z,11.7
2022-10-20T17:40:00.302Z,11.6
2022-10-20T17:50:00.353Z,11.6
2022-10-20T18:00:02.720Z,11.5
2022-10-20T18:10:00.316Z,11.5
2022-10-20T18:20:00.272Z,11.4
2022-10-20T18:30:00.267Z,11.4
2022-10-20T18:40:00.273Z,11.3
2022-10-20T18:50:00.285Z,11.3
2022-10-20T19:00:00.299Z,11.3
2022-10-20T19:10:00.293Z,11.3
2022-10-20T19:20:00.303Z,11.3
2022-10-20T19:30:00.323Z,11.3
2022-10-20T19:40:00.303Z,11.2
2022-10-20T19:50:00.309Z,11.2
2022-10-20T20:00:00.240Z,11.2
2022-10-20T20:10:00.249Z,11.1
2022-10-20T20:20:00.298Z,11.0
2022-10-20T20:30:00.353Z,11.0
2022-10-20T20:40:00.291Z,11.0
2022-10-20T20:50:00.269Z,11.1
2022-10-20T21:00:00.323Z,11.0
2022-10-20T21:10:00.270Z,11.0
2022-10-20T21:20:00.308Z,11.0
2022-10-20T21:30:00.278Z,11.0
2022-10-20T21:40:00.356Z,11.0
2022-10-20T21:50:00.311Z,10.9
2022-10-20T22:00:00.321Z,11.0
2022-10-20T22:10:00.285Z,11.0
2022-10-20T22:20:04.257Z,10.9
2022-10-20T22:30:00.275Z,10.8
2022-10-20T22:40:00.300Z,10.8
2022-10-20T22:50:00.316Z,10.7
2022-10-20T23:00:00.259Z,10.6
2022-10-20T23:10:00.275Z,10.6
2022-10-20T23:20:00.264Z,10.5
2022-10-20T23:30:00.291Z,10.4
2022-10-20T23:40:00.279Z,10.3
2022-10-20T23:50:00.261Z,10.2
